This is the latest recevied weather packets stored in our database for station/object K3JAR-3. If no packets are shown the sender has not sent any weather packets the latest 10 day(s).
| Time | Temp. | Humidity | Pressure | Rain* | Wind** | Luminosity | Snow |
|---|---|---|---|---|---|---|---|
| 1777075225 | 32.78° C | 40% | 1005.4 hPa | 0 mm | - | - | - |
| 1777072224 | 31.67° C | 52% | 1005.2 hPa | 0 mm | - | - | - |
| 1777071628 | 32.22° C | 51% | 1005.2 hPa | 0 mm | - | - | - |
| 1777069820 | 32.22° C | 50% | 1005.1 hPa | 0 mm | - | - | - |
| 1777060223 | 32.22° C | 54% | 1006.6 hPa | 0 mm | - | - | - |
| 1777058416 | 30.56° C | 57% | 1007 hPa | 0 mm | - | - | - |
| 1777056064 | 30.56° C | 66% | 1007.4 hPa | 0 mm | - | - | - |
| 1777055456 | 30.56° C | 63% | 1007.4 hPa | 0 mm | - | - | - |
| 1777053626 | 28.89° C | 69% | 1007.7 hPa | 0 mm | - | - | - |
| 1777051223 | 28.89° C | 71% | 1008 hPa | 0 mm | - | - | - |
| 1777048819 | 27.22° C | 76% | 1008.2 hPa | 0 mm | - | - | - |
| 1777041024 | 23.33° C | 90% | 1008.1 hPa | 0 mm | - | - | - |
| 1777039820 | 22.78° C | 91% | 1008 hPa | 0 mm | - | - | - |
| 1777038626 | 22.78° C | 93% | 1007.8 hPa | 0 mm | - | - | - |
| 1777038030 | 22.22° C | 94% | 1007.8 hPa | 0 mm | - | - | - |
| 1777033819 | 21.67° C | 94% | 1007.4 hPa | 0 mm | - | - | - |
| 1777032050 | 21.67° C | 93% | 1007.1 hPa | 0 mm | - | - | - |
| 1777031416 | 21.67° C | 93% | 1007 hPa | 0 mm | - | - | - |
| 1777030839 | 21.67° C | 93% | 1007.1 hPa | 0 mm | - | - | - |
| 1777022437 | 22.22° C | 90% | 1007 hPa | 0 mm | - | - | - |
| 1777021221 | 22.22° C | 90% | 1007.2 hPa | 0 mm | - | - | - |
| 1777020028 | 22.22° C | 90% | 1007.1 hPa | 0 mm | - | - | - |
| 1777018857 | 22.22° C | 90% | 1007.1 hPa | 0 mm | - | - | - |
| 1777018225 | 22.22° C | 90% | 1007.2 hPa | 0 mm | - | - | - |
| 1777014027 | 22.22° C | 90% | 1007.5 hPa | 0 mm | - | - | - |
* Rain latest hour (hover to see other rain measurements)
** Current wind speed in m/s (hover to see current wind gust speed)